createdAt,value
2019-02-20T00:02:08.627Z,100.00
2019-02-20T00:04:40.254Z,100.00
2019-02-20T00:07:11.938Z,100.00
2019-02-20T00:09:43.611Z,100.00
2019-02-20T00:12:16.644Z,100.00
2019-02-20T00:14:48.273Z,100.00
2019-02-20T00:17:20.064Z,100.00
2019-02-20T00:19:54.127Z,100.00
2019-02-20T00:22:25.736Z,100.00
2019-02-20T00:24:57.482Z,100.00
2019-02-20T00:27:29.000Z,100.00
2019-02-20T00:30:00.610Z,100.00
2019-02-20T00:32:32.219Z,100.00
2019-02-20T00:35:03.842Z,100.00
2019-02-20T00:37:35.637Z,100.00
2019-02-20T00:40:07.706Z,100.00
2019-02-20T00:42:39.444Z,100.00
2019-02-20T00:45:38.855Z,100.00
2019-02-20T00:48:23.554Z,100.00
2019-02-20T00:51:01.507Z,100.00
2019-02-20T00:53:37.785Z,100.00
2019-02-20T00:56:09.537Z,100.00
2019-02-20T00:58:41.055Z,100.00
2019-02-20T01:01:12.705Z,100.00
2019-02-20T01:03:44.309Z,100.00
2019-02-20T01:06:16.051Z,100.00
2019-02-20T01:08:50.617Z,100.00
2019-02-20T01:11:22.470Z,100.00
2019-02-20T01:13:54.010Z,100.00
2019-02-20T01:16:25.605Z,100.00
2019-02-20T01:18:57.145Z,100.00
2019-02-20T01:21:29.149Z,100.00
2019-02-20T01:24:00.688Z,100.00
2019-02-20T01:26:32.268Z,100.00
2019-02-20T01:29:03.831Z,100.00
2019-02-20T01:31:35.745Z,100.00
2019-02-20T01:34:08.958Z,100.00
2019-02-20T01:36:40.563Z,100.00
2019-02-20T01:39:12.172Z,100.00
2019-02-20T01:41:43.784Z,100.00
2019-02-20T01:44:15.540Z,100.00
2019-02-20T01:46:47.155Z,100.00
2019-02-20T01:49:18.822Z,100.00
2019-02-20T01:51:50.455Z,100.00
2019-02-20T01:54:22.121Z,100.00
2019-02-20T01:56:53.707Z,100.00
2019-02-20T01:59:25.251Z,100.00
2019-02-20T02:01:58.354Z,100.00
2019-02-20T02:04:30.004Z,100.00
2019-02-20T02:07:01.594Z,100.00
2019-02-20T02:09:33.210Z,100.00
2019-02-20T02:12:04.903Z,100.00
2019-02-20T02:14:36.458Z,100.00
2019-02-20T02:17:08.108Z,100.00
2019-02-20T02:19:39.718Z,100.00
2019-02-20T02:22:11.279Z,100.00
2019-02-20T02:24:42.688Z,100.00
2019-02-20T02:27:14.493Z,100.00
2019-02-20T02:29:46.152Z,100.00
2019-02-20T02:32:17.776Z,100.00
2019-02-20T02:34:49.419Z,100.00
2019-02-20T02:37:21.072Z,100.00
2019-02-20T02:39:52.767Z,100.00
2019-02-20T02:42:24.444Z,100.00
2019-02-20T02:44:56.178Z,100.00
2019-02-20T02:47:27.732Z,100.00
2019-02-20T02:49:59.169Z,100.00
2019-02-20T02:52:30.780Z,100.00
2019-02-20T02:55:02.411Z,100.00
2019-02-20T02:57:34.675Z,100.00
2019-02-20T03:00:07.009Z,100.00
2019-02-20T03:02:42.689Z,100.00
2019-02-20T03:05:14.383Z,100.00
2019-02-20T03:07:46.031Z,100.00
2019-02-20T03:10:17.629Z,100.00
2019-02-20T03:12:49.445Z,100.00
2019-02-20T03:15:21.171Z,100.00
2019-02-20T03:17:52.765Z,100.00
2019-02-20T03:20:24.365Z,100.00
2019-02-20T03:22:56.074Z,100.00
2019-02-20T03:25:28.957Z,100.00
2019-02-20T03:28:00.540Z,100.00
2019-02-20T03:30:32.178Z,100.00
2019-02-20T03:33:03.906Z,100.00
2019-02-20T03:35:35.647Z,100.00
2019-02-20T03:38:07.205Z,100.00
2019-02-20T03:40:38.892Z,100.00
2019-02-20T03:43:11.728Z,100.00
2019-02-20T03:45:43.197Z,100.00
2019-02-20T03:48:14.771Z,100.00
2019-02-20T03:50:46.448Z,100.00
2019-02-20T03:53:18.081Z,100.00
2019-02-20T03:55:49.852Z,100.00
2019-02-20T03:58:21.317Z,100.00
2019-02-20T04:00:53.147Z,100.00
2019-02-20T04:03:24.670Z,100.00
2019-02-20T04:05:56.373Z,100.00
2019-02-20T04:08:29.142Z,100.00
2019-02-20T04:11:00.768Z,100.00
2019-02-20T04:13:32.466Z,100.00
2019-02-20T04:16:04.119Z,100.00
2019-02-20T04:18:35.691Z,100.00
2019-02-20T04:21:10.454Z,100.00
2019-02-20T04:23:44.263Z,100.00
2019-02-20T04:26:15.725Z,100.00
2019-02-20T04:28:47.303Z,100.00
2019-02-20T04:31:18.880Z,100.00
2019-02-20T04:33:50.494Z,100.00
2019-02-20T04:36:21.987Z,100.00
2019-02-20T04:38:53.686Z,100.00
2019-02-20T04:41:25.327Z,100.00
2019-02-20T04:43:56.979Z,100.00
2019-02-20T04:46:28.746Z,100.00
2019-02-20T04:49:00.388Z,100.00
2019-02-20T04:51:31.958Z,100.00
2019-02-20T04:54:12.878Z,100.00
2019-02-20T04:56:39.869Z,100.00
2019-02-20T04:59:14.130Z,100.00
2019-02-20T05:01:46.825Z,100.00
2019-02-20T05:04:18.389Z,100.00
2019-02-20T05:06:49.964Z,100.00
2019-02-20T05:09:21.561Z,100.00
2019-02-20T05:11:53.223Z,100.00
2019-02-20T05:14:24.824Z,100.00
2019-02-20T05:16:56.417Z,100.00
2019-02-20T05:19:27.970Z,100.00
2019-02-20T05:21:59.547Z,100.00
2019-02-20T05:24:31.118Z,100.00
2019-02-20T05:27:03.958Z,100.00
2019-02-20T05:29:35.638Z,100.00
2019-02-20T05:32:10.279Z,100.00
2019-02-20T05:34:41.864Z,100.00
2019-02-20T05:37:13.575Z,100.00
2019-02-20T05:39:45.505Z,100.00
2019-02-20T05:42:17.836Z,100.00
2019-02-20T05:44:49.548Z,100.00
2019-02-20T05:47:21.200Z,100.00
2019-02-20T05:49:54.375Z,100.00
2019-02-20T05:52:25.969Z,100.00
2019-02-20T05:54:57.453Z,100.00
2019-02-20T05:57:29.045Z,100.00
2019-02-20T06:00:00.636Z,100.00
2019-02-20T06:02:32.451Z,100.00
2019-02-20T06:05:04.032Z,100.00
2019-02-20T06:07:35.576Z,100.00
2019-02-20T06:10:07.759Z,100.00
2019-02-20T06:12:39.404Z,100.00
2019-02-20T06:15:11.356Z,100.00
2019-02-20T06:17:45.124Z,100.00
2019-02-20T06:20:16.843Z,100.00
2019-02-20T06:22:48.317Z,100.00
2019-02-20T06:25:19.904Z,100.00
2019-02-20T06:27:51.502Z,100.00
2019-02-20T06:30:23.194Z,100.00
2019-02-20T06:32:54.753Z,100.00
2019-02-20T06:35:26.283Z,100.00
2019-02-20T06:37:57.814Z,100.00
2019-02-20T06:40:29.366Z,100.00
2019-02-20T06:43:01.081Z,100.00
2019-02-20T06:45:32.770Z,100.00
2019-02-20T06:48:04.499Z,100.00
2019-02-20T06:50:40.271Z,100.00
2019-02-20T06:53:11.951Z,100.00
2019-02-20T06:55:43.587Z,100.00
2019-02-20T06:58:15.189Z,100.00
2019-02-20T07:00:46.852Z,100.00
2019-02-20T07:03:18.390Z,100.00
2019-02-20T07:06:15.412Z,100.00
2019-02-20T07:09:45.589Z,100.00
2019-02-20T07:12:23.204Z,100.00
2019-02-20T07:15:15.742Z,100.00
2019-02-20T07:18:30.378Z,100.00
2019-02-20T07:21:31.731Z,100.00
2019-02-20T07:24:22.034Z,100.00
2019-02-20T07:27:49.271Z,100.00
2019-02-20T07:30:20.869Z,100.00
2019-02-20T07:32:52.397Z,100.00
2019-02-20T07:35:23.954Z,100.00
2019-02-20T07:37:55.682Z,100.00
2019-02-20T07:40:27.219Z,100.00
2019-02-20T07:42:58.884Z,100.00
2019-02-20T07:45:30.461Z,100.00
2019-02-20T07:48:02.111Z,100.00
2019-02-20T07:50:33.696Z,100.00
2019-02-20T07:53:05.444Z,100.00
2019-02-20T07:55:37.137Z,100.00
2019-02-20T07:58:08.722Z,100.00
2019-02-20T08:00:40.727Z,100.00
2019-02-20T08:03:13.321Z,100.00
2019-02-20T08:05:44.842Z,100.00
2019-02-20T08:08:18.528Z,100.00
2019-02-20T08:10:49.749Z,100.00
2019-02-20T08:13:21.348Z,100.00
2019-02-20T08:15:52.877Z,100.00
2019-02-20T08:18:24.502Z,100.00
2019-02-20T08:20:56.189Z,100.00
2019-02-20T08:23:27.907Z,100.00
2019-02-20T08:25:59.760Z,100.00
2019-02-20T08:28:31.509Z,100.00
2019-02-20T08:31:03.163Z,99.37
2019-02-20T08:33:35.501Z,100.00
2019-02-20T08:36:07.071Z,99.46
2019-02-20T08:38:38.574Z,96.46
2019-02-20T08:41:10.254Z,92.93
2019-02-20T08:43:46.223Z,93.79
2019-02-20T08:46:17.884Z,93.02
2019-02-20T08:48:49.456Z,90.94
2019-02-20T08:51:20.984Z,91.03
2019-02-20T08:53:52.436Z,86.63
2019-02-20T08:56:23.966Z,77.11
2019-02-20T08:58:55.584Z,79.40
2019-02-20T09:01:28.656Z,78.36
2019-02-20T09:04:00.236Z,75.66
2019-02-20T09:06:31.946Z,73.39
2019-02-20T09:09:04.906Z,69.94
2019-02-20T09:11:39.509Z,67.05
2019-02-20T09:14:11.257Z,67.38
2019-02-20T09:16:42.906Z,67.02
2019-02-20T09:19:15.861Z,64.95
2019-02-20T09:21:47.323Z,64.09
2019-02-20T09:24:18.882Z,63.87
2019-02-20T09:26:50.620Z,65.32
2019-02-20T09:29:22.385Z,58.69
2019-02-20T09:31:55.403Z,59.24
2019-02-20T09:34:27.823Z,57.53
2019-02-20T09:36:59.429Z,54.74
2019-02-20T09:39:40.851Z,53.44
2019-02-20T09:42:20.446Z,53.08
2019-02-20T09:44:52.420Z,53.84
2019-02-20T09:47:24.079Z,53.49
2019-02-20T09:49:55.678Z,54.61
2019-02-20T09:52:27.245Z,54.32
2019-02-20T09:54:59.770Z,50.11
2019-02-20T09:57:31.337Z,47.71
2019-02-20T10:00:02.815Z,49.33
2019-02-20T10:02:34.875Z,47.93
2019-02-20T10:05:07.985Z,46.00
2019-02-20T10:07:39.547Z,46.03
2019-02-20T10:10:11.284Z,46.85
2019-02-20T10:12:42.933Z,48.15
2019-02-20T10:15:14.966Z,47.99
2019-02-20T10:17:46.762Z,48.62
2019-02-20T10:20:19.414Z,46.47
2019-02-20T10:22:51.300Z,47.07
2019-02-20T10:25:24.066Z,48.04
2019-02-20T10:27:57.149Z,47.95
2019-02-20T10:30:28.711Z,47.70
2019-02-20T10:33:00.295Z,47.81
2019-02-20T10:35:31.934Z,48.24
2019-02-20T10:38:05.747Z,48.09
2019-02-20T10:40:37.307Z,49.46
2019-02-20T10:43:08.999Z,48.69
2019-02-20T10:45:40.669Z,48.69
2019-02-20T10:48:12.319Z,49.22
2019-02-20T10:50:43.877Z,48.83
2019-02-20T10:53:15.592Z,48.99
2019-02-20T10:55:47.150Z,47.77
2019-02-20T10:58:21.853Z,48.70
2019-02-20T11:00:53.470Z,49.45
2019-02-20T11:03:24.922Z,49.30
2019-02-20T11:05:57.891Z,49.24
2019-02-20T11:08:30.490Z,49.20
2019-02-20T11:11:02.403Z,49.15
2019-02-20T11:13:34.030Z,48.44
2019-02-20T11:16:05.821Z,47.58
2019-02-20T11:18:37.380Z,47.24
2019-02-20T11:21:09.037Z,46.49
2019-02-20T11:23:40.742Z,47.52
2019-02-20T11:26:17.887Z,46.86
2019-02-20T11:28:45.860Z,45.60
2019-02-20T11:31:17.387Z,46.15
2019-02-20T11:33:48.988Z,46.20
2019-02-20T11:36:20.652Z,46.47
2019-02-20T11:38:52.190Z,46.95
2019-02-20T11:41:23.889Z,45.97
2019-02-20T11:43:55.502Z,45.73
2019-02-20T11:46:27.065Z,47.06
2019-02-20T11:48:58.813Z,47.58
2019-02-20T11:51:30.528Z,46.20
2019-02-20T11:54:02.230Z,45.88
2019-02-20T11:56:33.718Z,46.21
2019-02-20T11:59:06.391Z,45.06
2019-02-20T12:01:38.007Z,45.19
2019-02-20T12:04:09.814Z,44.81
2019-02-20T12:06:41.495Z,46.51
2019-02-20T12:09:13.029Z,46.27
2019-02-20T12:11:44.721Z,46.23
2019-02-20T12:14:16.213Z,45.75
2019-02-20T12:16:47.781Z,46.34
2019-02-20T12:19:19.330Z,48.12
2019-02-20T12:21:50.900Z,50.78
2019-02-20T12:24:22.460Z,50.02
2019-02-20T12:26:54.057Z,50.90
2019-02-20T12:29:25.739Z,51.79
2019-02-20T12:31:57.421Z,50.72
2019-02-20T12:34:30.408Z,51.47
2019-02-20T12:37:04.835Z,46.88
2019-02-20T12:39:36.527Z,46.33
2019-02-20T12:42:09.421Z,47.65
2019-02-20T12:44:41.028Z,50.27
2019-02-20T12:47:12.608Z,52.27
2019-02-20T12:49:44.218Z,51.87
2019-02-20T12:52:15.891Z,51.50
2019-02-20T12:54:47.445Z,48.21
2019-02-20T12:57:19.102Z,46.46
2019-02-20T12:59:50.632Z,47.10
2019-02-20T13:02:22.299Z,48.63
2019-02-20T13:04:53.932Z,47.75
2019-02-20T13:07:27.469Z,47.24
2019-02-20T13:10:00.687Z,47.77
2019-02-20T13:12:32.426Z,46.11
2019-02-20T13:15:03.929Z,45.14
2019-02-20T13:17:35.612Z,44.86
2019-02-20T13:20:07.521Z,45.27
2019-02-20T13:22:39.123Z,45.78
2019-02-20T13:25:10.931Z,44.48
2019-02-20T13:27:44.996Z,45.77
2019-02-20T13:30:16.745Z,45.74
2019-02-20T13:32:48.238Z,44.77
2019-02-20T13:35:19.783Z,44.12
2019-02-20T13:37:51.556Z,43.59
2019-02-20T13:40:23.247Z,44.08
2019-02-20T13:42:54.841Z,43.96
2019-02-20T13:45:26.512Z,43.82
2019-02-20T13:47:58.311Z,43.68
2019-02-20T13:50:30.021Z,40.67
2019-02-20T13:53:01.791Z,41.01
2019-02-20T13:55:34.761Z,40.13
2019-02-20T13:58:06.705Z,39.06
2019-02-20T14:00:38.690Z,40.39
2019-02-20T14:03:10.582Z,40.20
2019-02-20T14:05:42.262Z,41.88
2019-02-20T14:08:14.001Z,40.75
2019-02-20T14:10:46.712Z,40.43
2019-02-20T14:13:18.474Z,40.84
2019-02-20T14:15:51.802Z,41.05
2019-02-20T14:18:23.604Z,41.34
2019-02-20T14:20:55.276Z,41.57
2019-02-20T14:23:26.987Z,42.56
2019-02-20T14:25:58.634Z,41.46
2019-02-20T14:28:30.425Z,42.56
2019-02-20T14:31:01.855Z,42.81
2019-02-20T14:33:33.536Z,43.13
2019-02-20T14:36:05.257Z,43.39
2019-02-20T14:38:36.951Z,42.93
2019-02-20T14:41:08.751Z,43.57
2019-02-20T14:43:40.367Z,43.51
2019-02-20T14:46:12.001Z,44.04
2019-02-20T14:48:44.769Z,44.72
2019-02-20T14:51:16.356Z,44.98
2019-02-20T14:53:48.146Z,45.40
2019-02-20T14:56:19.814Z,46.11
2019-02-20T14:58:51.571Z,45.87
2019-02-20T15:01:23.181Z,46.65
2019-02-20T15:03:54.956Z,46.90
2019-02-20T15:06:26.775Z,47.80
2019-02-20T15:08:58.282Z,47.34
2019-02-20T15:11:29.975Z,47.59
2019-02-20T15:14:01.530Z,48.47
2019-02-20T15:16:33.210Z,49.12
2019-02-20T15:19:04.697Z,49.33
2019-02-20T15:21:37.729Z,49.80
2019-02-20T15:24:09.376Z,49.91
2019-02-20T15:26:41.093Z,50.39
2019-02-20T15:29:12.555Z,50.55
2019-02-20T15:31:44.056Z,51.04
2019-02-20T15:34:15.606Z,51.26
2019-02-20T15:36:47.269Z,51.67
2019-02-20T15:39:18.889Z,52.34
2019-02-20T15:41:50.496Z,52.39
2019-02-20T15:44:22.922Z,52.52
2019-02-20T15:46:55.800Z,52.90
2019-02-20T15:49:27.377Z,52.73
2019-02-20T15:52:00.566Z,53.19
2019-02-20T15:54:32.085Z,53.86
2019-02-20T15:57:03.735Z,53.87
2019-02-20T15:59:35.803Z,54.20
2019-02-20T16:02:07.374Z,54.44
2019-02-20T16:04:38.941Z,55.31
2019-02-20T16:07:10.680Z,55.52
2019-02-20T16:09:42.326Z,55.74
2019-02-20T16:12:14.234Z,55.83
2019-02-20T16:14:45.933Z,56.78
2019-02-20T16:17:17.664Z,57.08
2019-02-20T16:19:49.274Z,57.64
2019-02-20T16:22:20.915Z,57.48
2019-02-20T16:24:52.964Z,57.67
2019-02-20T16:27:24.572Z,57.55
2019-02-20T16:29:56.151Z,58.01
2019-02-20T16:32:27.805Z,57.90
2019-02-20T16:34:59.454Z,57.90
2019-02-20T16:37:31.483Z,58.49
2019-02-20T16:40:03.208Z,59.12
2019-02-20T16:42:34.756Z,59.95
2019-02-20T16:45:10.460Z,59.95
2019-02-20T16:47:42.203Z,59.47
2019-02-20T16:50:14.253Z,59.75
2019-02-20T16:52:45.805Z,60.16
2019-02-20T16:55:22.578Z,60.23
2019-02-20T16:57:56.764Z,60.23
2019-02-20T17:00:24.722Z,60.16
2019-02-20T17:02:56.890Z,60.08
2019-02-20T17:05:28.494Z,61.03
2019-02-20T17:08:00.189Z,61.03
2019-02-20T17:10:31.912Z,60.53
2019-02-20T17:13:03.627Z,61.30
2019-02-20T17:15:35.882Z,60.93
2019-02-20T17:18:07.781Z,61.68
2019-02-20T17:20:39.683Z,62.52
2019-02-20T17:23:17.108Z,63.45
2019-02-20T17:25:48.799Z,63.50
2019-02-20T17:28:20.452Z,63.94
2019-02-20T17:30:53.331Z,64.25
2019-02-20T17:33:25.223Z,64.09
2019-02-20T17:35:56.872Z,63.88
2019-02-20T17:38:29.653Z,63.74
2019-02-20T17:41:01.434Z,62.77
2019-02-20T17:43:33.261Z,62.51
2019-02-20T17:46:05.123Z,62.60
2019-02-20T17:48:36.793Z,62.47
2019-02-20T17:51:09.820Z,62.81
2019-02-20T17:53:44.477Z,63.40
2019-02-20T17:56:16.220Z,63.82
2019-02-20T17:58:47.966Z,63.70
2019-02-20T18:01:19.653Z,64.25
2019-02-20T18:03:51.342Z,64.89
2019-02-20T18:06:23.022Z,66.07
2019-02-20T18:08:56.204Z,66.87
2019-02-20T18:11:27.917Z,68.44
2019-02-20T18:13:59.703Z,69.49
2019-02-20T18:16:32.642Z,69.68
2019-02-20T18:19:04.255Z,71.12
2019-02-20T18:21:36.045Z,72.06
2019-02-20T18:24:10.465Z,72.53
2019-02-20T18:26:42.169Z,72.42
2019-02-20T18:29:15.058Z,71.72
2019-02-20T18:31:47.566Z,70.91
2019-02-20T18:34:19.224Z,70.53
2019-02-20T18:36:50.845Z,70.24
2019-02-20T18:39:23.728Z,70.16
2019-02-20T18:41:55.305Z,70.07
2019-02-20T18:44:26.841Z,70.20
2019-02-20T18:46:58.445Z,70.27
2019-02-20T18:49:30.306Z,70.46
2019-02-20T18:52:01.926Z,70.67
2019-02-20T18:54:33.577Z,71.35
2019-02-20T18:57:05.078Z,71.44
2019-02-20T18:59:36.898Z,71.22
2019-02-20T19:02:09.205Z,71.69
2019-02-20T19:04:40.946Z,71.79
2019-02-20T19:07:14.131Z,71.88
2019-02-20T19:09:48.728Z,71.86
2019-02-20T19:12:46.732Z,72.16
2019-02-20T19:15:31.969Z,72.34
2019-02-20T19:19:04.486Z,72.55
2019-02-20T19:22:19.466Z,72.90
2019-02-20T19:25:53.217Z,73.15
2019-02-20T19:28:48.678Z,73.67
2019-02-20T19:32:11.184Z,73.98
2019-02-20T19:35:06.996Z,74.36
2019-02-20T19:38:24.881Z,74.74
2019-02-20T19:41:16.301Z,74.92
2019-02-20T19:44:24.691Z,74.81
2019-02-20T19:47:36.652Z,75.07
2019-02-20T19:50:27.380Z,75.07
2019-02-20T19:53:20.493Z,75.48
2019-02-20T19:56:21.139Z,75.93
2019-02-20T19:59:36.488Z,76.33
2019-02-20T20:02:45.345Z,76.68
2019-02-20T20:05:46.384Z,76.78
2019-02-20T20:08:57.159Z,76.83
2019-02-20T20:12:08.133Z,76.75
2019-02-20T20:15:41.263Z,76.63
2019-02-20T20:18:52.322Z,76.95
2019-02-20T20:22:00.383Z,77.54
2019-02-20T20:24:37.700Z,77.64
2019-02-20T20:27:44.072Z,78.45
2019-02-20T20:30:58.381Z,78.58
2019-02-20T20:33:55.923Z,79.00
2019-02-20T20:36:52.837Z,79.47
2019-02-20T20:39:59.564Z,79.95
2019-02-20T20:43:20.531Z,82.60
2019-02-20T20:46:32.373Z,83.41
2019-02-20T20:49:15.265Z,82.37
2019-02-20T20:52:39.365Z,82.88
2019-02-20T20:55:35.147Z,83.13
2019-02-20T20:58:30.830Z,83.23
2019-02-20T21:01:44.805Z,83.29
2019-02-20T21:04:54.889Z,83.11
2019-02-20T21:07:52.782Z,82.50
2019-02-20T21:11:06.638Z,83.85
2019-02-20T21:14:19.054Z,84.31
2019-02-20T21:17:32.713Z,84.35
2019-02-20T21:20:39.408Z,84.19
2019-02-20T21:23:38.468Z,84.52
2019-02-20T21:26:56.491Z,85.27
2019-02-20T21:29:51.088Z,85.07
2019-02-20T21:33:17.297Z,84.46
2019-02-20T21:36:08.605Z,84.84
2019-02-20T21:39:10.347Z,85.86
2019-02-20T21:42:02.079Z,86.23
2019-02-20T21:44:53.210Z,86.97
2019-02-20T21:48:03.564Z,87.14
2019-02-20T21:51:10.217Z,87.92
2019-02-20T21:54:09.131Z,87.79
2019-02-20T21:57:04.415Z,88.02
2019-02-20T22:00:02.205Z,88.58
2019-02-20T22:03:12.835Z,88.99
2019-02-20T22:05:58.485Z,88.97
2019-02-20T22:09:08.542Z,89.15
2019-02-20T22:12:09.793Z,88.71
2019-02-20T22:15:03.763Z,89.89
2019-02-20T22:17:57.289Z,91.21
2019-02-20T22:21:03.105Z,92.23
2019-02-20T22:23:57.809Z,94.46
2019-02-20T22:26:58.432Z,95.08
2019-02-20T22:29:53.147Z,95.47
2019-02-20T22:32:44.217Z,95.81
2019-02-20T22:35:46.612Z,94.62
2019-02-20T22:38:48.276Z,93.61
2019-02-20T22:42:13.271Z,94.90
2019-02-20T22:45:27.409Z,93.99
2019-02-20T22:48:35.573Z,93.67
2019-02-20T22:51:43.921Z,94.42
2019-02-20T22:55:20.125Z,94.05
2019-02-20T22:58:20.633Z,93.98
2019-02-20T23:01:39.615Z,92.97
2019-02-20T23:05:06.241Z,93.29
2019-02-20T23:08:20.845Z,93.59
2019-02-20T23:11:32.408Z,93.82
2019-02-20T23:14:40.071Z,93.89
2019-02-20T23:17:11.699Z,94.19
2019-02-20T23:19:45.016Z,94.30
2019-02-20T23:22:16.777Z,95.34
2019-02-20T23:24:48.378Z,96.37
2019-02-20T23:27:21.452Z,96.94
2019-02-20T23:29:53.104Z,96.97
2019-02-20T23:32:24.856Z,97.31
2019-02-20T23:34:56.597Z,98.29
2019-02-20T23:37:28.294Z,98.67
2019-02-20T23:39:59.947Z,100.00
2019-02-20T23:42:31.648Z,100.00
2019-02-20T23:45:03.240Z,100.00
2019-02-20T23:47:34.842Z,100.00
2019-02-20T23:50:06.610Z,100.00
2019-02-20T23:52:38.109Z,100.00
2019-02-20T23:55:09.900Z,100.00
2019-02-20T23:57:41.482Z,100.00
